sensor_id;sensor_type;location;lat;lon;timestamp;pressure;altitude;pressure_sealevel;temperature;humidity
62201;BME280;48197;42.732;27.192;2023-03-11T00:01:30;98174.56;;;13.67;100.00
62201;BME280;48197;42.732;27.192;2023-03-11T00:03:58;98169.78;;;13.68;100.00
62201;BME280;48197;42.732;27.192;2023-03-11T00:06:25;98165.31;;;13.71;100.00
62201;BME280;48197;42.732;27.192;2023-03-11T00:08:52;98154.97;;;13.71;100.00
62201;BME280;48197;42.732;27.192;2023-03-11T00:11:19;98150.19;;;13.72;100.00
62201;BME280;48197;42.732;27.192;2023-03-11T00:13:47;98146.19;;;13.73;100.00
62201;BME280;48197;42.732;27.192;2023-03-11T00:16:13;98140.47;;;13.76;100.00
62201;BME280;48197;42.732;27.192;2023-03-11T00:18:40;98131.53;;;13.81;100.00
62201;BME280;48197;42.732;27.192;2023-03-11T00:21:13;98120.09;;;13.88;100.00
62201;BME280;48197;42.732;27.192;2023-03-11T00:23:40;98125.03;;;13.94;100.00
62201;BME280;48197;42.732;27.192;2023-03-11T00:26:06;98114.22;;;13.96;100.00
62201;BME280;48197;42.732;27.192;2023-03-11T00:28:32;98113.72;;;13.97;100.00
62201;BME280;48197;42.732;27.192;2023-03-11T00:30:59;98117.31;;;13.98;100.00
62201;BME280;48197;42.732;27.192;2023-03-11T00:33:26;98109.44;;;13.96;100.00
62201;BME280;48197;42.732;27.192;2023-03-11T00:35:52;98103.13;;;13.96;100.00
62201;BME280;48197;42.732;27.192;2023-03-11T00:38:18;98098.78;;;13.95;100.00
62201;BME280;48197;42.732;27.192;2023-03-11T00:40:46;98094.16;;;13.92;100.00
62201;BME280;48197;42.732;27.192;2023-03-11T00:43:13;98098.16;;;13.91;100.00
62201;BME280;48197;42.732;27.192;2023-03-11T00:45:39;98091.84;;;13.90;100.00
62201;BME280;48197;42.732;27.192;2023-03-11T00:48:06;98093.38;;;13.91;100.00
62201;BME280;48197;42.732;27.192;2023-03-11T00:50:34;98092.91;;;13.93;100.00
62201;BME280;48197;42.732;27.192;2023-03-11T00:53:00;98086.31;;;13.90;100.00
62201;BME280;48197;42.732;27.192;2023-03-11T00:55:28;98074.72;;;13.82;100.00
62201;BME280;48197;42.732;27.192;2023-03-11T00:57:56;98075.38;;;13.77;100.00
62201;BME280;48197;42.732;27.192;2023-03-11T01:00:23;98072.13;;;13.79;100.00
62201;BME280;48197;42.732;27.192;2023-03-11T01:02:50;98074.13;;;13.78;100.00
62201;BME280;48197;42.732;27.192;2023-03-11T01:05:20;98057.47;;;13.78;100.00
62201;BME280;48197;42.732;27.192;2023-03-11T01:07:47;98059.19;;;13.76;100.00
62201;BME280;48197;42.732;27.192;2023-03-11T01:10:14;98048.69;;;13.80;100.00
62201;BME280;48197;42.732;27.192;2023-03-11T01:12:41;98059.19;;;13.76;100.00
62201;BME280;48197;42.732;27.192;2023-03-11T01:15:09;98042.50;;;13.76;100.00
62201;BME280;48197;42.732;27.192;2023-03-11T01:17:40;98046.84;;;13.67;100.00
62201;BME280;48197;42.732;27.192;2023-03-11T01:20:07;98043.19;;;13.61;100.00
62201;BME280;48197;42.732;27.192;2023-03-11T01:22:35;98032.38;;;13.63;100.00
62201;BME280;48197;42.732;27.192;2023-03-11T01:25:02;98043.31;;;13.67;100.00
62201;BME280;48197;42.732;27.192;2023-03-11T01:27:28;98036.06;;;13.69;100.00
62201;BME280;48197;42.732;27.192;2023-03-11T01:29:56;98037.25;;;13.78;100.00
62201;BME280;48197;42.732;27.192;2023-03-11T01:32:22;98023.88;;;13.76;100.00
62201;BME280;48197;42.732;27.192;2023-03-11T01:34:48;98019.84;;;13.77;100.00
62201;BME280;48197;42.732;27.192;2023-03-11T01:37:15;98012.91;;;13.73;100.00
62201;BME280;48197;42.732;27.192;2023-03-11T01:39:42;98007.81;;;13.71;100.00
62201;BME280;48197;42.732;27.192;2023-03-11T01:42:08;97997.66;;;13.68;100.00
62201;BME280;48197;42.732;27.192;2023-03-11T01:44:35;97991.94;;;13.72;100.00
62201;BME280;48197;42.732;27.192;2023-03-11T01:49:28;97996.69;;;13.80;100.00
62201;BME280;48197;42.732;27.192;2023-03-11T01:51:59;97988.19;;;13.84;100.00
62201;BME280;48197;42.732;27.192;2023-03-11T01:54:31;97980.94;;;13.86;100.00
62201;BME280;48197;42.732;27.192;2023-03-11T01:56:58;97986.19;;;13.84;100.00
62201;BME280;48197;42.732;27.192;2023-03-11T01:59:29;97978.03;;;13.81;100.00
62201;BME280;48197;42.732;27.192;2023-03-11T02:02:10;97971.22;;;13.82;100.00
62201;BME280;48197;42.732;27.192;2023-03-11T02:04:40;97965.53;;;13.85;100.00
62201;BME280;48197;42.732;27.192;2023-03-11T02:07:07;97966.13;;;13.80;100.00
62201;BME280;48197;42.732;27.192;2023-03-11T02:09:34;97956.44;;;13.76;100.00
62201;BME280;48197;42.732;27.192;2023-03-11T02:12:01;97955.06;;;13.71;100.00
62201;BME280;48197;42.732;27.192;2023-03-11T02:14:28;97943.22;;;13.71;100.00
62201;BME280;48197;42.732;27.192;2023-03-11T02:16:57;97951.69;;;13.67;100.00
62201;BME280;48197;42.732;27.192;2023-03-11T02:22:09;97950.50;;;13.59;100.00
62201;BME280;48197;42.732;27.192;2023-03-11T02:24:45;97957.03;;;13.46;100.00
62201;BME280;48197;42.732;27.192;2023-03-11T02:27:15;97948.84;;;13.43;100.00
62201;BME280;48197;42.732;27.192;2023-03-11T02:29:43;97942.84;;;13.35;100.00
62201;BME280;48197;42.732;27.192;2023-03-11T02:32:13;97934.84;;;13.28;100.00
62201;BME280;48197;42.732;27.192;2023-03-11T02:34:39;97922.06;;;13.21;100.00
62201;BME280;48197;42.732;27.192;2023-03-11T02:37:07;97917.75;;;13.20;100.00
62201;BME280;48197;42.732;27.192;2023-03-11T02:39:38;97915.25;;;13.22;100.00
62201;BME280;48197;42.732;27.192;2023-03-11T02:42:11;97909.88;;;13.28;100.00
62201;BME280;48197;42.732;27.192;2023-03-11T02:44:39;97931.31;;;13.27;100.00
62201;BME280;48197;42.732;27.192;2023-03-11T02:47:09;97922.66;;;13.25;100.00
62201;BME280;48197;42.732;27.192;2023-03-11T02:49:36;97922.38;;;13.23;100.00
62201;BME280;48197;42.732;27.192;2023-03-11T02:52:03;97919.59;;;13.23;100.00
62201;BME280;48197;42.732;27.192;2023-03-11T02:54:30;97918.34;;;13.24;100.00
62201;BME280;48197;42.732;27.192;2023-03-11T02:56:57;97918.84;;;13.14;100.00
62201;BME280;48197;42.732;27.192;2023-03-11T02:59:23;97932.75;;;12.95;100.00
62201;BME280;48197;42.732;27.192;2023-03-11T03:01:50;97934.75;;;12.76;100.00
62201;BME280;48197;42.732;27.192;2023-03-11T03:04:16;97932.91;;;12.64;100.00
62201;BME280;48197;42.732;27.192;2023-03-11T03:06:43;97917.50;;;12.54;100.00
62201;BME280;48197;42.732;27.192;2023-03-11T03:09:10;97912.72;;;12.45;100.00
62201;BME280;48197;42.732;27.192;2023-03-11T03:11:36;97908.56;;;12.40;100.00
62201;BME280;48197;42.732;27.192;2023-03-11T03:14:03;97894.09;;;12.36;100.00
62201;BME280;48197;42.732;27.192;2023-03-11T03:16:29;97898.88;;;12.36;100.00
62201;BME280;48197;42.732;27.192;2023-03-11T03:18:56;97882.25;;;12.36;100.00
62201;BME280;48197;42.732;27.192;2023-03-11T03:21:23;97888.88;;;12.38;100.00
62201;BME280;48197;42.732;27.192;2023-03-11T03:23:50;97890.88;;;12.47;100.00
62201;BME280;48197;42.732;27.192;2023-03-11T03:26:16;97893.19;;;12.58;100.00
62201;BME280;48197;42.732;27.192;2023-03-11T03:28:42;97882.25;;;12.63;100.00
62201;BME280;48197;42.732;27.192;2023-03-11T03:31:09;97881.16;;;12.70;100.00
62201;BME280;48197;42.732;27.192;2023-03-11T03:33:35;97886.38;;;12.77;100.00
62201;BME280;48197;42.732;27.192;2023-03-11T03:36:05;97887.16;;;12.87;100.00
62201;BME280;48197;42.732;27.192;2023-03-11T03:38:32;97881.75;;;12.93;100.00
62201;BME280;48197;42.732;27.192;2023-03-11T03:40:58;97886.19;;;12.99;100.00
62201;BME280;48197;42.732;27.192;2023-03-11T03:43:24;97881.25;;;13.03;100.00
62201;BME280;48197;42.732;27.192;2023-03-11T03:45:57;97871.72;;;13.04;100.00
62201;BME280;48197;42.732;27.192;2023-03-11T03:48:23;97870.47;;;13.05;100.00
62201;BME280;48197;42.732;27.192;2023-03-11T03:50:50;97862.63;;;13.04;100.00
62201;BME280;48197;42.732;27.192;2023-03-11T03:53:16;97855.84;;;13.05;100.00
62201;BME280;48197;42.732;27.192;2023-03-11T03:55:43;97846.44;;;13.02;100.00
62201;BME280;48197;42.732;27.192;2023-03-11T03:58:10;97844.44;;;13.03;100.00
62201;BME280;48197;42.732;27.192;2023-03-11T04:00:36;97838.91;;;13.03;100.00
62201;BME280;48197;42.732;27.192;2023-03-11T04:03:04;97845.19;;;13.03;100.00
62201;BME280;48197;42.732;27.192;2023-03-11T04:05:30;97843.69;;;13.02;100.00
62201;BME280;48197;42.732;27.192;2023-03-11T04:07:57;97848.59;;;13.07;100.00
62201;BME280;48197;42.732;27.192;2023-03-11T04:10:23;97853.97;;;13.11;100.00
62201;BME280;48197;42.732;27.192;2023-03-11T04:12:50;97845.81;;;13.07;100.00
62201;BME280;48197;42.732;27.192;2023-03-11T04:15:16;97844.75;;;13.05;100.00
62201;BME280;48197;42.732;27.192;2023-03-11T04:17:43;97852.47;;;13.01;100.00
62201;BME280;48197;42.732;27.192;2023-03-11T04:20:10;97852.91;;;12.99;100.00
62201;BME280;48197;42.732;27.192;2023-03-11T04:22:37;97842.31;;;12.98;100.00
62201;BME280;48197;42.732;27.192;2023-03-11T04:25:03;97836.75;;;12.98;100.00
62201;BME280;48197;42.732;27.192;2023-03-11T04:27:30;97838.78;;;12.97;100.00
62201;BME280;48197;42.732;27.192;2023-03-11T04:29:56;97834.28;;;13.00;100.00
62201;BME280;48197;42.732;27.192;2023-03-11T04:32:23;97832.13;;;13.04;100.00
62201;BME280;48197;42.732;27.192;2023-03-11T04:34:50;97830.41;;;13.06;100.00
62201;BME280;48197;42.732;27.192;2023-03-11T04:37:17;97828.56;;;13.03;100.00
62201;BME280;48197;42.732;27.192;2023-03-11T04:39:43;97821.66;;;12.99;100.00
62201;BME280;48197;42.732;27.192;2023-03-11T04:42:10;97822.59;;;12.96;100.00
62201;BME280;48197;42.732;27.192;2023-03-11T04:44:38;97817.34;;;12.98;100.00
62201;BME280;48197;42.732;27.192;2023-03-11T04:47:05;97822.25;;;13.03;100.00
62201;BME280;48197;42.732;27.192;2023-03-11T04:49:31;97822.88;;;13.07;100.00
62201;BME280;48197;42.732;27.192;2023-03-11T04:51:58;97825.59;;;13.16;100.00
62201;BME280;48197;42.732;27.192;2023-03-11T04:54:25;97829.75;;;13.21;100.00
62201;BME280;48197;42.732;27.192;2023-03-11T04:56:51;97825.09;;;13.27;100.00
62201;BME280;48197;42.732;27.192;2023-03-11T04:59:18;97825.25;;;13.33;100.00
62201;BME280;48197;42.732;27.192;2023-03-11T05:01:44;97821.06;;;13.37;100.00
62201;BME280;48197;42.732;27.192;2023-03-11T05:04:11;97812.75;;;13.37;100.00
62201;BME280;48197;42.732;27.192;2023-03-11T05:06:37;97810.41;;;13.45;100.00
62201;BME280;48197;42.732;27.192;2023-03-11T05:09:04;97816.56;;;13.49;100.00
62201;BME280;48197;42.732;27.192;2023-03-11T05:11:31;97814.09;;;13.51;100.00
62201;BME280;48197;42.732;27.192;2023-03-11T05:13:57;97819.63;;;13.51;100.00
62201;BME280;48197;42.732;27.192;2023-03-11T05:16:24;97808.81;;;13.53;100.00
62201;BME280;48197;42.732;27.192;2023-03-11T05:18:50;97805.84;;;13.57;100.00
62201;BME280;48197;42.732;27.192;2023-03-11T05:21:18;97810.03;;;13.61;100.00
62201;BME280;48197;42.732;27.192;2023-03-11T05:23:44;97809.38;;;13.66;100.00
62201;BME280;48197;42.732;27.192;2023-03-11T05:26:10;97803.44;;;13.74;100.00
62201;BME280;48197;42.732;27.192;2023-03-11T05:28:37;97803.41;;;13.83;100.00
62201;BME280;48197;42.732;27.192;2023-03-11T05:31:07;97809.19;;;13.94;100.00
62201;BME280;48197;42.732;27.192;2023-03-11T05:33:33;97799.84;;;14.06;100.00
62201;BME280;48197;42.732;27.192;2023-03-11T05:36:04;97803.78;;;14.15;100.00
62201;BME280;48197;42.732;27.192;2023-03-11T05:38:31;97796.31;;;14.21;100.00
62201;BME280;48197;42.732;27.192;2023-03-11T05:40:57;97801.53;;;14.28;100.00
62201;BME280;48197;42.732;27.192;2023-03-11T05:43:23;97796.16;;;14.39;100.00
62201;BME280;48197;42.732;27.192;2023-03-11T05:45:50;97803.81;;;14.44;100.00
62201;BME280;48197;42.732;27.192;2023-03-11T05:48:16;97793.72;;;14.56;100.00
62201;BME280;48197;42.732;27.192;2023-03-11T05:50:42;97793.44;;;14.69;100.00
62201;BME280;48197;42.732;27.192;2023-03-11T05:53:09;97796.78;;;15.03;100.00
62201;BME280;48197;42.732;27.192;2023-03-11T05:55:35;97803.66;;;15.73;100.00
62201;BME280;48197;42.732;27.192;2023-03-11T05:58:02;97796.06;;;16.40;100.00
62201;BME280;48197;42.732;27.192;2023-03-11T06:00:29;97799.47;;;16.50;100.00
62201;BME280;48197;42.732;27.192;2023-03-11T06:02:55;97796.34;;;16.68;100.00
62201;BME280;48197;42.732;27.192;2023-03-11T06:05:22;97794.44;;;16.54;100.00
62201;BME280;48197;42.732;27.192;2023-03-11T06:07:49;97780.38;;;16.17;100.00
62201;BME280;48197;42.732;27.192;2023-03-11T06:10:15;97791.09;;;15.83;100.00
62201;BME280;48197;42.732;27.192;2023-03-11T06:12:41;97780.41;;;15.61;100.00
62201;BME280;48197;42.732;27.192;2023-03-11T06:15:08;97782.84;;;15.53;100.00
62201;BME280;48197;42.732;27.192;2023-03-11T06:17:34;97788.53;;;15.79;100.00
62201;BME280;48197;42.732;27.192;2023-03-11T06:20:01;97785.34;;;16.07;100.00
62201;BME280;48197;42.732;27.192;2023-03-11T06:22:27;97785.38;;;16.33;100.00
62201;BME280;48197;42.732;27.192;2023-03-11T06:24:54;97795.97;;;16.55;100.00
62201;BME280;48197;42.732;27.192;2023-03-11T06:27:20;97791.38;;;16.26;100.00
62201;BME280;48197;42.732;27.192;2023-03-11T06:29:50;97787.34;;;16.53;100.00
62201;BME280;48197;42.732;27.192;2023-03-11T06:32:17;97784.63;;;17.60;100.00
62201;BME280;48197;42.732;27.192;2023-03-11T06:34:48;97787.03;;;18.44;100.00
62201;BME280;48197;42.732;27.192;2023-03-11T06:37:14;97778.72;;;18.83;100.00
62201;BME280;48197;42.732;27.192;2023-03-11T06:39:41;97782.03;;;19.04;100.00
62201;BME280;48197;42.732;27.192;2023-03-11T06:42:11;97788.38;;;19.05;100.00
62201;BME280;48197;42.732;27.192;2023-03-11T06:44:39;97785.06;;;18.89;100.00
62201;BME280;48197;42.732;27.192;2023-03-11T06:47:05;97759.94;;;17.95;100.00
62201;BME280;48197;42.732;27.192;2023-03-11T06:49:32;97768.34;;;18.01;100.00
62201;BME280;48197;42.732;27.192;2023-03-11T06:51:58;97759.94;;;17.95;100.00
62201;BME280;48197;42.732;27.192;2023-03-11T06:54:26;97759.00;;;17.61;100.00
62201;BME280;48197;42.732;27.192;2023-03-11T06:56:53;97764.00;;;17.08;100.00
62201;BME280;48197;42.732;27.192;2023-03-11T06:59:20;97768.50;;;16.74;100.00
62201;BME280;48197;42.732;27.192;2023-03-11T07:01:47;97760.81;;;16.63;100.00
62201;BME280;48197;42.732;27.192;2023-03-11T07:04:13;97753.59;;;16.51;100.00
62201;BME280;48197;42.732;27.192;2023-03-11T07:06:40;97748.53;;;16.49;100.00
62201;BME280;48197;42.732;27.192;2023-03-11T07:09:07;97746.75;;;16.78;100.00
62201;BME280;48197;42.732;27.192;2023-03-11T07:11:34;97736.94;;;17.20;100.00
62201;BME280;48197;42.732;27.192;2023-03-11T07:14:01;97727.78;;;18.45;100.00
62201;BME280;48197;42.732;27.192;2023-03-11T07:16:28;97725.50;;;18.77;100.00
62201;BME280;48197;42.732;27.192;2023-03-11T07:18:56;97708.59;;;17.99;100.00
62201;BME280;48197;42.732;27.192;2023-03-11T07:21:24;97713.28;;;17.59;100.00
62201;BME280;48197;42.732;27.192;2023-03-11T07:23:52;97715.50;;;18.03;100.00
62201;BME280;48197;42.732;27.192;2023-03-11T07:26:19;97701.91;;;17.79;100.00
62201;BME280;48197;42.732;27.192;2023-03-11T07:28:46;97698.03;;;17.54;100.00
62201;BME280;48197;42.732;27.192;2023-03-11T07:31:18;97693.25;;;17.66;100.00
62201;BME280;48197;42.732;27.192;2023-03-11T07:33:45;97687.06;;;18.22;100.00
62201;BME280;48197;42.732;27.192;2023-03-11T07:36:14;97674.88;;;18.47;100.00
62201;BME280;48197;42.732;27.192;2023-03-11T07:38:41;97677.44;;;18.45;100.00
62201;BME280;48197;42.732;27.192;2023-03-11T07:41:08;97675.66;;;18.59;99.66
62201;BME280;48197;42.732;27.192;2023-03-11T07:43:36;97672.34;;;18.32;96.90
62201;BME280;48197;42.732;27.192;2023-03-11T07:48:30;97667.53;;;18.78;95.04
62201;BME280;48197;42.732;27.192;2023-03-11T07:51:07;97674.84;;;19.15;92.40
62201;BME280;48197;42.732;27.192;2023-03-11T07:53:35;97680.22;;;18.51;93.51
62201;BME280;48197;42.732;27.192;2023-03-11T07:56:02;97675.91;;;18.61;91.76
62201;BME280;48197;42.732;27.192;2023-03-11T07:58:29;97673.34;;;18.41;93.50
62201;BME280;48197;42.732;27.192;2023-03-11T08:00:55;97671.31;;;18.19;92.22
62201;BME280;48197;42.732;27.192;2023-03-11T08:03:23;97667.25;;;18.25;95.11
62201;BME280;48197;42.732;27.192;2023-03-11T08:05:50;97669.53;;;18.32;91.58
62201;BME280;48197;42.732;27.192;2023-03-11T08:08:17;97664.94;;;18.07;92.32
62201;BME280;48197;42.732;27.192;2023-03-11T08:10:43;97666.78;;;18.61;94.40
62201;BME280;48197;42.732;27.192;2023-03-11T08:13:10;97663.44;;;18.90;89.86
62201;BME280;48197;42.732;27.192;2023-03-11T08:15:36;97657.03;;;19.07;90.06
62201;BME280;48197;42.732;27.192;2023-03-11T08:18:03;97669.50;;;19.17;87.02
62201;BME280;48197;42.732;27.192;2023-03-11T08:20:30;97672.09;;;19.79;85.36
62201;BME280;48197;42.732;27.192;2023-03-11T08:22:57;97665.31;;;20.46;84.22
62201;BME280;48197;42.732;27.192;2023-03-11T08:25:24;97680.03;;;20.58;78.87
62201;BME280;48197;42.732;27.192;2023-03-11T08:27:51;97659.16;;;19.70;80.30
62201;BME280;48197;42.732;27.192;2023-03-11T08:30:18;97658.09;;;19.04;84.88
62201;BME280;48197;42.732;27.192;2023-03-11T08:32:44;97656.84;;;18.82;84.87
62201;BME280;48197;42.732;27.192;2023-03-11T08:35:10;97665.72;;;18.19;89.11
62201;BME280;48197;42.732;27.192;2023-03-11T08:37:37;97668.75;;;17.38;100.00
62201;BME280;48197;42.732;27.192;2023-03-11T08:40:03;97675.56;;;16.57;100.00
62201;BME280;48197;42.732;27.192;2023-03-11T08:42:31;97702.50;;;15.25;100.00
62201;BME280;48197;42.732;27.192;2023-03-11T08:44:58;97697.44;;;13.60;100.00
62201;BME280;48197;42.732;27.192;2023-03-11T08:47:24;97688.66;;;12.80;100.00
62201;BME280;48197;42.732;27.192;2023-03-11T08:49:51;97685.19;;;12.52;100.00
62201;BME280;48197;42.732;27.192;2023-03-11T08:52:16;97684.13;;;12.59;100.00
62201;BME280;48197;42.732;27.192;2023-03-11T08:54:43;97671.72;;;12.78;100.00
62201;BME280;48197;42.732;27.192;2023-03-11T08:57:10;97656.25;;;12.86;100.00
62201;BME280;48197;42.732;27.192;2023-03-11T08:59:37;97653.63;;;13.16;100.00
62201;BME280;48197;42.732;27.192;2023-03-11T09:05:06;97659.31;;;13.85;100.00
62201;BME280;48197;42.732;27.192;2023-03-11T09:07:32;97653.09;;;14.05;100.00
62201;BME280;48197;42.732;27.192;2023-03-11T09:09:59;97660.56;;;14.58;100.00
62201;BME280;48197;42.732;27.192;2023-03-11T09:12:25;97660.34;;;15.12;100.00
62201;BME280;48197;42.732;27.192;2023-03-11T09:14:52;97664.09;;;15.70;100.00
62201;BME280;48197;42.732;27.192;2023-03-11T09:17:19;97664.41;;;16.25;100.00
62201;BME280;48197;42.732;27.192;2023-03-11T09:19:46;97651.22;;;16.51;100.00
62201;BME280;48197;42.732;27.192;2023-03-11T09:22:13;97638.44;;;16.39;100.00
62201;BME280;48197;42.732;27.192;2023-03-11T09:24:41;97656.38;;;16.06;100.00
62201;BME280;48197;42.732;27.192;2023-03-11T09:27:08;97644.00;;;15.81;100.00
62201;BME280;48197;42.732;27.192;2023-03-11T09:29:35;97646.00;;;15.60;100.00
62201;BME280;48197;42.732;27.192;2023-03-11T09:32:02;97641.28;;;15.66;100.00
62201;BME280;48197;42.732;27.192;2023-03-11T09:34:29;97653.09;;;15.82;100.00
62201;BME280;48197;42.732;27.192;2023-03-11T09:36:55;97652.06;;;16.05;100.00
62201;BME280;48197;42.732;27.192;2023-03-11T10:10:23;97626.47;;;15.34;100.00
62201;BME280;48197;42.732;27.192;2023-03-11T10:12:56;97628.56;;;15.39;100.00
62201;BME280;48197;42.732;27.192;2023-03-11T10:18:19;97615.41;;;15.40;100.00
62201;BME280;48197;42.732;27.192;2023-03-11T10:23:46;97616.38;;;15.16;100.00
62201;BME280;48197;42.732;27.192;2023-03-11T10:26:12;97608.16;;;14.86;100.00
62201;BME280;48197;42.732;27.192;2023-03-11T10:29:02;97599.84;;;14.72;100.00
62201;BME280;48197;42.732;27.192;2023-03-11T10:31:29;97601.75;;;14.80;100.00
62201;BME280;48197;42.732;27.192;2023-03-11T10:36:37;97598.63;;;14.73;100.00
62201;BME280;48197;42.732;27.192;2023-03-11T10:39:04;97605.75;;;14.44;100.00
62201;BME280;48197;42.732;27.192;2023-03-11T10:41:41;97595.75;;;14.02;100.00
62201;BME280;48197;42.732;27.192;2023-03-11T10:44:15;97598.69;;;13.83;100.00
62201;BME280;48197;42.732;27.192;2023-03-11T10:46:43;97594.88;;;13.96;100.00
62201;BME280;48197;42.732;27.192;2023-03-11T10:49:13;97594.34;;;14.27;100.00
62201;BME280;48197;42.732;27.192;2023-03-11T10:51:40;97588.66;;;14.66;100.00
62201;BME280;48197;42.732;27.192;2023-03-11T10:54:19;97579.31;;;15.04;100.00
62201;BME280;48197;42.732;27.192;2023-03-11T10:56:48;97577.59;;;15.54;100.00
62201;BME280;48197;42.732;27.192;2023-03-11T10:59:26;97582.47;;;15.85;100.00
62201;BME280;48197;42.732;27.192;2023-03-11T11:01:56;97574.19;;;15.90;100.00
62201;BME280;48197;42.732;27.192;2023-03-11T11:04:44;97559.78;;;15.98;100.00
62201;BME280;48197;42.732;27.192;2023-03-11T11:07:30;97564.66;;;16.03;100.00
62201;BME280;48197;42.732;27.192;2023-03-11T11:10:19;97560.84;;;16.00;100.00
62201;BME280;48197;42.732;27.192;2023-03-11T11:13:14;97559.38;;;16.05;100.00
62201;BME280;48197;42.732;27.192;2023-03-11T11:15:56;97565.44;;;16.03;100.00
62201;BME280;48197;42.732;27.192;2023-03-11T11:18:27;97562.28;;;15.90;100.00
62201;BME280;48197;42.732;27.192;2023-03-11T11:23:36;97587.84;;;15.42;100.00
62201;BME280;48197;42.732;27.192;2023-03-11T11:26:17;97585.25;;;15.38;100.00
62201;BME280;48197;42.732;27.192;2023-03-11T11:29:03;97587.56;;;15.40;100.00
62201;BME280;48197;42.732;27.192;2023-03-11T11:31:31;97576.44;;;15.40;100.00
62201;BME280;48197;42.732;27.192;2023-03-11T11:33:58;97577.47;;;15.42;100.00
62201;BME280;48197;42.732;27.192;2023-03-11T11:36:31;97585.16;;;15.53;100.00
62201;BME280;48197;42.732;27.192;2023-03-11T11:38:59;97578.94;;;15.64;100.00
62201;BME280;48197;42.732;27.192;2023-03-11T11:41:30;97585.16;;;15.74;100.00
62201;BME280;48197;42.732;27.192;2023-03-11T11:43:59;97578.38;;;15.80;100.00
62201;BME280;48197;42.732;27.192;2023-03-11T11:46:27;97574.78;;;16.00;100.00
62201;BME280;48197;42.732;27.192;2023-03-11T11:51:27;97573.63;;;15.60;100.00
62201;BME280;48197;42.732;27.192;2023-03-11T11:56:26;97562.00;;;14.95;100.00
62201;BME280;48197;42.732;27.192;2023-03-11T11:58:53;97565.13;;;14.82;100.00
62201;BME280;48197;42.732;27.192;2023-03-11T12:01:32;97569.75;;;14.70;100.00
62201;BME280;48197;42.732;27.192;2023-03-11T12:09:29;97566.66;;;14.33;100.00
62201;BME280;48197;42.732;27.192;2023-03-11T12:12:10;97573.28;;;14.35;100.00
62201;BME280;48197;42.732;27.192;2023-03-11T12:15:03;97578.22;;;14.46;100.00
62201;BME280;48197;42.732;27.192;2023-03-11T12:17:28;97580.34;;;14.66;100.00
62201;BME280;48197;42.732;27.192;2023-03-11T12:20:14;97586.47;;;14.90;100.00
62201;BME280;48197;42.732;27.192;2023-03-11T12:22:50;97587.88;;;15.01;100.00
62201;BME280;48197;42.732;27.192;2023-03-11T12:27:52;97601.06;;;14.85;100.00
62201;BME280;48197;42.732;27.192;2023-03-11T12:30:22;97615.22;;;14.67;100.00
62201;BME280;48197;42.732;27.192;2023-03-11T12:32:55;97611.97;;;14.54;100.00
62201;BME280;48197;42.732;27.192;2023-03-11T12:35:25;97614.34;;;14.46;100.00
62201;BME280;48197;42.732;27.192;2023-03-11T12:37:56;97614.56;;;14.42;100.00
62201;BME280;48197;42.732;27.192;2023-03-11T12:40:45;97608.72;;;14.40;100.00
62201;BME280;48197;42.732;27.192;2023-03-11T12:43:25;97622.25;;;14.33;100.00
62201;BME280;48197;42.732;27.192;2023-03-11T12:45:58;97620.63;;;14.26;100.00
62201;BME280;48197;42.732;27.192;2023-03-11T12:50:55;97626.56;;;14.19;100.00
62201;BME280;48197;42.732;27.192;2023-03-11T12:53:40;97628.00;;;14.14;100.00
62201;BME280;48197;42.732;27.192;2023-03-11T13:01:16;97627.22;;;14.28;100.00
62201;BME280;48197;42.732;27.192;2023-03-11T13:03:53;97635.72;;;14.55;100.00
62201;BME280;48197;42.732;27.192;2023-03-11T13:08:53;97621.72;;;14.79;100.00
62201;BME280;48197;42.732;27.192;2023-03-11T13:11:27;97625.25;;;14.79;100.00
62201;BME280;48197;42.732;27.192;2023-03-11T13:14:07;97617.56;;;14.74;100.00
62201;BME280;48197;42.732;27.192;2023-03-11T13:16:37;97608.63;;;14.49;100.00
62201;BME280;48197;42.732;27.192;2023-03-11T13:19:45;97617.44;;;14.33;100.00
62201;BME280;48197;42.732;27.192;2023-03-11T13:21:54;97617.56;;;14.24;100.00
62201;BME280;48197;42.732;27.192;2023-03-11T13:26:54;97624.84;;;14.06;100.00
62201;BME280;48197;42.732;27.192;2023-03-11T13:29:44;97631.75;;;14.11;100.00
62201;BME280;48197;42.732;27.192;2023-03-11T13:32:18;97627.63;;;14.21;100.00
62201;BME280;48197;42.732;27.192;2023-03-11T13:34:53;97628.28;;;14.31;100.00
62201;BME280;48197;42.732;27.192;2023-03-11T13:39:55;97640.81;;;14.41;100.00
62201;BME280;48197;42.732;27.192;2023-03-11T13:42:41;97634.13;;;14.33;100.00
62201;BME280;48197;42.732;27.192;2023-03-11T13:45:30;97646.84;;;14.25;100.00
62201;BME280;48197;42.732;27.192;2023-03-11T13:47:57;97635.75;;;14.25;100.00
62201;BME280;48197;42.732;27.192;2023-03-11T13:50:35;97647.34;;;14.23;100.00
62201;BME280;48197;42.732;27.192;2023-03-11T13:53:07;97642.94;;;14.32;100.00
62201;BME280;48197;42.732;27.192;2023-03-11T13:55:36;97648.19;;;14.59;100.00
62201;BME280;48197;42.732;27.192;2023-03-11T13:58:24;97655.94;;;14.70;100.00
62201;BME280;48197;42.732;27.192;2023-03-11T14:00:52;97664.19;;;14.79;100.00
62201;BME280;48197;42.732;27.192;2023-03-11T14:03:23;97654.69;;;14.71;100.00
62201;BME280;48197;42.732;27.192;2023-03-11T14:06:00;97652.78;;;14.47;100.00
62201;BME280;48197;42.732;27.192;2023-03-11T14:08:31;97653.50;;;14.27;100.00
62201;BME280;48197;42.732;27.192;2023-03-11T14:11:00;97660.00;;;14.09;100.00